sensor_id;sensor_type;location;lat;lon;timestamp;pressure;altitude;pressure_sealevel;temperature;humidity
75208;BME280;63795;55.684;37.864;2023-07-02T00:02:00;98146.50;;;18.70;67.59
75208;BME280;63795;55.684;37.864;2023-07-02T00:07:01;98150.31;;;18.61;68.67
75208;BME280;63795;55.684;37.864;2023-07-02T00:12:01;98141.03;;;18.52;68.73
75208;BME280;63795;55.684;37.864;2023-07-02T00:17:02;98140.69;;;18.44;68.69
75208;BME280;63795;55.684;37.864;2023-07-02T00:22:03;98148.63;;;18.35;69.68
75208;BME280;63795;55.684;37.864;2023-07-02T00:27:04;98150.06;;;18.25;69.74
75208;BME280;63795;55.684;37.864;2023-07-02T00:32:05;98156.47;;;18.20;68.55
75208;BME280;63795;55.684;37.864;2023-07-02T00:37:05;98145.66;;;18.09;69.50
75208;BME280;63795;55.684;37.864;2023-07-02T00:42:06;98151.88;;;18.08;69.36
75208;BME280;63795;55.684;37.864;2023-07-02T00:47:08;98156.47;;;18.00;70.88
75208;BME280;63795;55.684;37.864;2023-07-02T00:52:09;98169.72;;;17.97;70.50
75208;BME280;63795;55.684;37.864;2023-07-02T00:57:10;98157.31;;;17.86;72.13
75208;BME280;63795;55.684;37.864;2023-07-02T01:02:10;98165.78;;;17.80;71.61
75208;BME280;63795;55.684;37.864;2023-07-02T01:07:13;98167.47;;;17.72;72.59
75208;BME280;63795;55.684;37.864;2023-07-02T01:12:13;98163.25;;;17.67;72.45
75208;BME280;63795;55.684;37.864;2023-07-02T01:17:16;98172.44;;;17.57;73.41
75208;BME280;63795;55.684;37.864;2023-07-02T01:22:26;98183.41;;;17.58;71.77
75208;BME280;63795;55.684;37.864;2023-07-02T01:27:28;98172.06;;;17.49;72.54
75208;BME280;63795;55.684;37.864;2023-07-02T01:32:29;98175.81;;;17.55;73.85
75208;BME280;63795;55.684;37.864;2023-07-02T01:37:31;98164.25;;;17.50;73.12
75208;BME280;63795;55.684;37.864;2023-07-02T01:42:37;98175.88;;;17.46;74.42
75208;BME280;63795;55.684;37.864;2023-07-02T01:47:38;98172.13;;;17.40;74.33
75208;BME280;63795;55.684;37.864;2023-07-02T01:52:39;98178.84;;;17.37;72.63
75208;BME280;63795;55.684;37.864;2023-07-02T01:57:40;98169.38;;;17.31;74.69
75208;BME280;63795;55.684;37.864;2023-07-02T02:02:40;98186.06;;;17.33;76.16
75208;BME280;63795;55.684;37.864;2023-07-02T02:07:40;98181.00;;;17.28;76.11
75208;BME280;63795;55.684;37.864;2023-07-02T02:12:41;98189.31;;;17.26;75.15
75208;BME280;63795;55.684;37.864;2023-07-02T02:17:41;98194.06;;;17.29;75.95
75208;BME280;63795;55.684;37.864;2023-07-02T02:22:42;98198.03;;;17.31;75.79
75208;BME280;63795;55.684;37.864;2023-07-02T02:27:43;98193.66;;;17.36;75.32
75208;BME280;63795;55.684;37.864;2023-07-02T02:32:43;98193.47;;;17.39;76.04
75208;BME280;63795;55.684;37.864;2023-07-02T02:37:44;98195.84;;;17.41;74.65
75208;BME280;63795;55.684;37.864;2023-07-02T02:42:44;98179.75;;;17.43;75.91
75208;BME280;63795;55.684;37.864;2023-07-02T02:47:47;98188.13;;;17.47;75.91
75208;BME280;63795;55.684;37.864;2023-07-02T02:52:48;98192.72;;;17.53;75.96
75208;BME280;63795;55.684;37.864;2023-07-02T02:57:48;98200.59;;;17.58;75.20
75208;BME280;63795;55.684;37.864;2023-07-02T03:02:49;98197.53;;;17.62;75.69
75208;BME280;63795;55.684;37.864;2023-07-02T03:07:50;98203.69;;;17.69;75.31
75208;BME280;63795;55.684;37.864;2023-07-02T03:12:51;98199.59;;;17.76;74.79
75208;BME280;63795;55.684;37.864;2023-07-02T03:17:51;98203.84;;;17.80;75.00
75208;BME280;63795;55.684;37.864;2023-07-02T03:22:52;98201.38;;;17.88;74.68
75208;BME280;63795;55.684;37.864;2023-07-02T03:27:52;98206.06;;;18.06;74.05
75208;BME280;63795;55.684;37.864;2023-07-02T03:32:53;98216.72;;;18.20;74.08
75208;BME280;63795;55.684;37.864;2023-07-02T03:37:53;98225.50;;;18.31;73.87
75208;BME280;63795;55.684;37.864;2023-07-02T03:42:54;98228.97;;;18.35;73.62
75208;BME280;63795;55.684;37.864;2023-07-02T03:47:54;98241.53;;;18.37;73.67
75208;BME280;63795;55.684;37.864;2023-07-02T03:52:55;98232.63;;;18.35;73.53
75208;BME280;63795;55.684;37.864;2023-07-02T03:57:55;98234.53;;;18.24;73.31
75208;BME280;63795;55.684;37.864;2023-07-02T04:02:55;98239.88;;;18.16;73.57
75208;BME280;63795;55.684;37.864;2023-07-02T04:07:56;98242.97;;;18.13;73.37
75208;BME280;63795;55.684;37.864;2023-07-02T04:12:57;98250.09;;;18.17;73.01
75208;BME280;63795;55.684;37.864;2023-07-02T04:17:57;98249.06;;;18.20;72.96
75208;BME280;63795;55.684;37.864;2023-07-02T04:22:58;98254.94;;;18.11;73.22
75208;BME280;63795;55.684;37.864;2023-07-02T04:27:58;98264.22;;;18.21;73.01
75208;BME280;63795;55.684;37.864;2023-07-02T04:32:59;98271.16;;;18.14;72.85
75208;BME280;63795;55.684;37.864;2023-07-02T04:38:01;98281.44;;;18.21;72.93
75208;BME280;63795;55.684;37.864;2023-07-02T04:43:01;98272.09;;;18.26;72.30
75208;BME280;63795;55.684;37.864;2023-07-02T04:48:04;98278.63;;;18.41;71.98
75208;BME280;63795;55.684;37.864;2023-07-02T04:53:04;98269.63;;;18.48;71.16
75208;BME280;63795;55.684;37.864;2023-07-02T04:58:05;98284.66;;;18.57;71.10
75208;BME280;63795;55.684;37.864;2023-07-02T05:03:05;98287.75;;;18.74;70.40
75208;BME280;63795;55.684;37.864;2023-07-02T05:08:06;98289.19;;;18.84;69.53
75208;BME280;63795;55.684;37.864;2023-07-02T05:13:06;98282.59;;;18.98;69.97
75208;BME280;63795;55.684;37.864;2023-07-02T05:18:07;98289.88;;;19.14;69.17
75208;BME280;63795;55.684;37.864;2023-07-02T05:23:07;98286.13;;;19.08;68.87
75208;BME280;63795;55.684;37.864;2023-07-02T05:28:08;98280.00;;;19.00;68.19
75208;BME280;63795;55.684;37.864;2023-07-02T05:33:08;98285.19;;;19.16;68.33
75208;BME280;63795;55.684;37.864;2023-07-02T05:38:08;98282.47;;;19.27;67.41
75208;BME280;63795;55.684;37.864;2023-07-02T05:43:09;98285.06;;;19.45;67.19
75208;BME280;63795;55.684;37.864;2023-07-02T05:48:09;98287.81;;;19.60;66.57
75208;BME280;63795;55.684;37.864;2023-07-02T05:53:10;98283.66;;;19.87;66.62
75208;BME280;63795;55.684;37.864;2023-07-02T05:58:11;98296.75;;;19.88;64.82
75208;BME280;63795;55.684;37.864;2023-07-02T06:03:12;98299.44;;;19.97;64.86
75208;BME280;63795;55.684;37.864;2023-07-02T06:08:16;98302.59;;;19.99;63.77
75208;BME280;63795;55.684;37.864;2023-07-02T06:13:17;98302.47;;;20.13;64.99
75208;BME280;63795;55.684;37.864;2023-07-02T06:18:17;98303.63;;;20.21;64.13
75208;BME280;63795;55.684;37.864;2023-07-02T06:23:18;98296.06;;;20.24;63.95
75208;BME280;63795;55.684;37.864;2023-07-02T06:28:18;98309.72;;;20.29;63.33
75208;BME280;63795;55.684;37.864;2023-07-02T06:33:19;98316.69;;;20.48;63.38
75208;BME280;63795;55.684;37.864;2023-07-02T06:38:19;98324.44;;;20.73;63.00
75208;BME280;63795;55.684;37.864;2023-07-02T06:43:20;98318.38;;;21.02;62.21
75208;BME280;63795;55.684;37.864;2023-07-02T06:48:20;98307.47;;;21.23;58.58
75208;BME280;63795;55.684;37.864;2023-07-02T06:53:22;98313.66;;;21.58;59.51
75208;BME280;63795;55.684;37.864;2023-07-02T06:58:22;98317.22;;;22.12;56.87
75208;BME280;63795;55.684;37.864;2023-07-02T07:03:22;98307.28;;;22.46;56.13
75208;BME280;63795;55.684;37.864;2023-07-02T07:08:24;98322.78;;;22.76;54.50
75208;BME280;63795;55.684;37.864;2023-07-02T07:13:24;98321.94;;;23.04;54.97
75208;BME280;63795;55.684;37.864;2023-07-02T07:18:25;98318.25;;;23.03;54.44
75208;BME280;63795;55.684;37.864;2023-07-02T07:23:25;98311.41;;;23.12;51.55
75208;BME280;63795;55.684;37.864;2023-07-02T07:28:26;98326.56;;;23.45;50.49
75208;BME280;63795;55.684;37.864;2023-07-02T07:33:26;98324.47;;;23.29;50.35
75208;BME280;63795;55.684;37.864;2023-07-02T07:38:27;98334.69;;;23.52;49.60
75208;BME280;63795;55.684;37.864;2023-07-02T07:43:27;98332.31;;;23.56;49.01
75208;BME280;63795;55.684;37.864;2023-07-02T07:48:28;98338.22;;;23.07;50.07
75208;BME280;63795;55.684;37.864;2023-07-02T07:53:28;98339.06;;;22.63;51.06
75208;BME280;63795;55.684;37.864;2023-07-02T07:58:29;98320.13;;;22.34;51.40
75208;BME280;63795;55.684;37.864;2023-07-02T08:03:29;98336.63;;;22.17;51.90
75208;BME280;63795;55.684;37.864;2023-07-02T08:08:29;98333.75;;;22.06;52.28
75208;BME280;63795;55.684;37.864;2023-07-02T08:13:30;98340.91;;;22.66;51.98
75208;BME280;63795;55.684;37.864;2023-07-02T08:18:30;98324.97;;;23.50;50.71
75208;BME280;63795;55.684;37.864;2023-07-02T08:23:31;98331.84;;;23.99;48.77
75208;BME280;63795;55.684;37.864;2023-07-02T08:28:31;98338.97;;;24.38;47.29
75208;BME280;63795;55.684;37.864;2023-07-02T08:33:32;98338.63;;;24.47;45.92
75208;BME280;63795;55.684;37.864;2023-07-02T08:38:32;98340.78;;;24.77;48.29
75208;BME280;63795;55.684;37.864;2023-07-02T08:43:33;98346.09;;;24.73;47.09
75208;BME280;63795;55.684;37.864;2023-07-02T08:48:34;98338.53;;;24.23;45.36
75208;BME280;63795;55.684;37.864;2023-07-02T08:53:35;98326.03;;;23.99;46.71
75208;BME280;63795;55.684;37.864;2023-07-02T08:58:36;98340.97;;;23.62;45.07
75208;BME280;63795;55.684;37.864;2023-07-02T09:03:37;98340.25;;;23.23;46.61
75208;BME280;63795;55.684;37.864;2023-07-02T09:08:38;98346.06;;;23.28;47.39
75208;BME280;63795;55.684;37.864;2023-07-02T09:18:55;98343.25;;;24.26;45.60
75208;BME280;63795;55.684;37.864;2023-07-02T09:23:56;98342.44;;;24.61;42.59
75208;BME280;63795;55.684;37.864;2023-07-02T09:29:00;98352.28;;;24.53;43.24
75208;BME280;63795;55.684;37.864;2023-07-02T09:34:02;98348.41;;;25.04;40.94
75208;BME280;63795;55.684;37.864;2023-07-02T09:39:03;98339.66;;;25.33;39.04
75208;BME280;63795;55.684;37.864;2023-07-02T09:44:04;98354.13;;;25.15;39.18
75208;BME280;63795;55.684;37.864;2023-07-02T09:49:06;98343.22;;;24.97;39.73
75208;BME280;63795;55.684;37.864;2023-07-02T09:54:08;98348.09;;;25.37;40.81
75208;BME280;63795;55.684;37.864;2023-07-02T09:59:09;98342.56;;;25.33;39.49
75208;BME280;63795;55.684;37.864;2023-07-02T10:04:11;98352.22;;;25.47;39.23
75208;BME280;63795;55.684;37.864;2023-07-02T10:09:12;98354.16;;;25.09;40.61
75208;BME280;63795;55.684;37.864;2023-07-02T10:14:12;98354.66;;;24.54;41.05
75208;BME280;63795;55.684;37.864;2023-07-02T10:19:13;98342.50;;;24.20;41.70
75208;BME280;63795;55.684;37.864;2023-07-02T10:24:15;98344.81;;;24.27;41.28
75208;BME280;63795;55.684;37.864;2023-07-02T10:29:20;98343.00;;;24.24;40.86
75208;BME280;63795;55.684;37.864;2023-07-02T10:34:32;98362.09;;;24.44;40.27
75208;BME280;63795;55.684;37.864;2023-07-02T10:39:38;98355.91;;;24.94;37.69
75208;BME280;63795;55.684;37.864;2023-07-02T10:44:52;98353.41;;;25.09;37.15
75208;BME280;63795;55.684;37.864;2023-07-02T10:49:53;98360.84;;;25.53;36.77
75208;BME280;63795;55.684;37.864;2023-07-02T10:54:53;98353.84;;;26.04;35.75
75208;BME280;63795;55.684;37.864;2023-07-02T11:00:04;98350.69;;;25.83;37.54
75208;BME280;63795;55.684;37.864;2023-07-02T11:05:07;98360.44;;;25.13;37.67
75208;BME280;63795;55.684;37.864;2023-07-02T11:10:18;98358.34;;;24.49;38.93
75208;BME280;63795;55.684;37.864;2023-07-02T11:15:19;98377.13;;;24.42;39.81
75208;BME280;63795;55.684;37.864;2023-07-02T11:20:19;98376.25;;;24.53;41.03
75208;BME280;63795;55.684;37.864;2023-07-02T11:25:21;98372.88;;;24.43;41.30
75208;BME280;63795;55.684;37.864;2023-07-02T11:30:22;98382.94;;;24.78;41.27
75208;BME280;63795;55.684;37.864;2023-07-02T11:35:33;98394.03;;;25.33;40.77
75208;BME280;63795;55.684;37.864;2023-07-02T11:40:34;98387.34;;;25.86;39.27
75208;BME280;63795;55.684;37.864;2023-07-02T11:45:34;98388.00;;;25.55;39.01
75208;BME280;63795;55.684;37.864;2023-07-02T11:50:35;98378.78;;;25.03;39.65
75208;BME280;63795;55.684;37.864;2023-07-02T11:55:36;98379.38;;;25.20;39.88
75208;BME280;63795;55.684;37.864;2023-07-02T12:00:37;98385.84;;;25.80;38.60
75208;BME280;63795;55.684;37.864;2023-07-02T12:05:38;98383.34;;;25.89;37.27
75208;BME280;63795;55.684;37.864;2023-07-02T12:10:38;98375.16;;;26.12;36.27
75208;BME280;63795;55.684;37.864;2023-07-02T12:15:39;98367.53;;;26.28;36.31
75208;BME280;63795;55.684;37.864;2023-07-02T12:20:43;98374.75;;;26.58;37.31
75208;BME280;63795;55.684;37.864;2023-07-02T12:25:43;98378.72;;;27.06;36.10
75208;BME280;63795;55.684;37.864;2023-07-02T12:30:44;98378.00;;;26.86;35.62
75208;BME280;63795;55.684;37.864;2023-07-02T12:35:45;98374.03;;;26.71;36.24
75208;BME280;63795;55.684;37.864;2023-07-02T12:40:45;98376.09;;;27.21;35.74
75208;BME280;63795;55.684;37.864;2023-07-02T12:45:46;98377.03;;;26.97;36.05
75208;BME280;63795;55.684;37.864;2023-07-02T12:50:54;98370.16;;;27.26;34.17
75208;BME280;63795;55.684;37.864;2023-07-02T12:55:55;98384.47;;;27.11;33.61
75208;BME280;63795;55.684;37.864;2023-07-02T13:00:55;98378.00;;;26.68;32.76
75208;BME280;63795;55.684;37.864;2023-07-02T13:05:56;98371.00;;;26.95;33.32
75208;BME280;63795;55.684;37.864;2023-07-02T13:10:56;98380.19;;;26.99;34.39
75208;BME280;63795;55.684;37.864;2023-07-02T13:15:57;98378.81;;;26.87;34.09
75208;BME280;63795;55.684;37.864;2023-07-02T13:20:57;98381.94;;;26.89;33.54
75208;BME280;63795;55.684;37.864;2023-07-02T13:25:58;98373.22;;;27.02;32.51
75208;BME280;63795;55.684;37.864;2023-07-02T13:30:58;98381.84;;;27.08;32.32
75208;BME280;63795;55.684;37.864;2023-07-02T13:35:59;98371.00;;;27.08;32.12
75208;BME280;63795;55.684;37.864;2023-07-02T13:41:00;98367.69;;;27.17;31.94
75208;BME280;63795;55.684;37.864;2023-07-02T13:46:02;98381.09;;;27.20;31.07
75208;BME280;63795;55.684;37.864;2023-07-02T13:51:03;98375.38;;;27.02;30.87
75208;BME280;63795;55.684;37.864;2023-07-02T13:56:03;98382.28;;;26.85;30.81
75208;BME280;63795;55.684;37.864;2023-07-02T14:01:04;98371.28;;;26.04;31.59
75208;BME280;63795;55.684;37.864;2023-07-02T14:06:04;98384.97;;;25.66;32.52
75208;BME280;63795;55.684;37.864;2023-07-02T14:11:05;98380.03;;;25.61;32.57
75208;BME280;63795;55.684;37.864;2023-07-02T14:16:05;98394.91;;;25.52;33.25
75208;BME280;63795;55.684;37.864;2023-07-02T14:21:06;98378.31;;;25.23;33.22
75208;BME280;63795;55.684;37.864;2023-07-02T14:26:06;98379.94;;;25.18;33.80
75208;BME280;63795;55.684;37.864;2023-07-02T14:31:08;98387.25;;;25.25;33.86
75208;BME280;63795;55.684;37.864;2023-07-02T14:36:09;98388.94;;;25.15;34.01
75208;BME280;63795;55.684;37.864;2023-07-02T14:41:09;98380.47;;;25.17;34.06
75208;BME280;63795;55.684;37.864;2023-07-02T14:46:10;98381.38;;;25.06;33.24
75208;BME280;63795;55.684;37.864;2023-07-02T14:51:11;98387.75;;;24.99;34.11
75208;BME280;63795;55.684;37.864;2023-07-02T14:56:11;98376.44;;;24.96;34.53
75208;BME280;63795;55.684;37.864;2023-07-02T15:01:12;98386.06;;;24.80;34.15
75208;BME280;63795;55.684;37.864;2023-07-02T15:06:15;98385.69;;;24.59;34.24
75208;BME280;63795;55.684;37.864;2023-07-02T15:11:17;98392.13;;;24.46;34.63
75208;BME280;63795;55.684;37.864;2023-07-02T15:16:18;98386.88;;;24.45;34.78
75208;BME280;63795;55.684;37.864;2023-07-02T15:21:20;98386.81;;;24.51;34.43
75208;BME280;63795;55.684;37.864;2023-07-02T15:26:21;98379.28;;;24.36;34.91
75208;BME280;63795;55.684;37.864;2023-07-02T15:31:21;98382.38;;;24.44;34.80
75208;BME280;63795;55.684;37.864;2023-07-02T15:36:22;98389.25;;;24.41;34.20
75208;BME280;63795;55.684;37.864;2023-07-02T15:41:23;98387.16;;;24.36;34.42
75208;BME280;63795;55.684;37.864;2023-07-02T15:46:23;98394.91;;;24.22;35.00
75208;BME280;63795;55.684;37.864;2023-07-02T15:51:24;98394.91;;;24.22;34.92
75208;BME280;63795;55.684;37.864;2023-07-02T15:56:27;98385.50;;;24.05;34.82
75208;BME280;63795;55.684;37.864;2023-07-02T16:01:28;98388.41;;;24.00;35.42
75208;BME280;63795;55.684;37.864;2023-07-02T16:06:28;98400.81;;;23.89;35.78
75208;BME280;63795;55.684;37.864;2023-07-02T16:11:32;98382.75;;;23.72;36.22
75208;BME280;63795;55.684;37.864;2023-07-02T16:16:34;98388.06;;;23.62;36.37
75208;BME280;63795;55.684;37.864;2023-07-02T16:21:36;98400.41;;;23.57;37.04
75208;BME280;63795;55.684;37.864;2023-07-02T16:26:40;98398.31;;;23.58;37.21
75208;BME280;63795;55.684;37.864;2023-07-02T16:31:51;98393.88;;;23.46;37.36
75208;BME280;63795;55.684;37.864;2023-07-02T16:36:52;98401.25;;;23.41;37.58
75208;BME280;63795;55.684;37.864;2023-07-02T16:41:53;98399.19;;;23.36;38.13
75208;BME280;63795;55.684;37.864;2023-07-02T16:46:54;98388.41;;;23.31;38.14
75208;BME280;63795;55.684;37.864;2023-07-02T16:51:56;98400.47;;;23.30;38.58
75208;BME280;63795;55.684;37.864;2023-07-02T16:56:58;98397.31;;;23.28;38.37
75208;BME280;63795;55.684;37.864;2023-07-02T17:01:59;98402.31;;;23.22;38.41
75208;BME280;63795;55.684;37.864;2023-07-02T17:07:00;98397.88;;;23.10;39.00
75208;BME280;63795;55.684;37.864;2023-07-02T17:12:03;98402.63;;;23.02;38.89
75208;BME280;63795;55.684;37.864;2023-07-02T17:17:09;98413.91;;;23.00;39.06
75208;BME280;63795;55.684;37.864;2023-07-02T17:22:12;98419.44;;;22.92;39.29
75208;BME280;63795;55.684;37.864;2023-07-02T17:27:16;98422.88;;;22.91;39.32
75208;BME280;63795;55.684;37.864;2023-07-02T17:32:17;98423.13;;;22.81;39.29
75208;BME280;63795;55.684;37.864;2023-07-02T17:37:18;98431.53;;;22.79;39.38
75208;BME280;63795;55.684;37.864;2023-07-02T17:42:20;98433.38;;;22.66;39.45
75208;BME280;63795;55.684;37.864;2023-07-02T17:47:20;98437.28;;;22.57;40.04
75208;BME280;63795;55.684;37.864;2023-07-02T17:52:21;98443.56;;;22.50;39.93
75208;BME280;63795;55.684;37.864;2023-07-02T17:57:22;98447.22;;;22.45;40.22
75208;BME280;63795;55.684;37.864;2023-07-02T18:02:23;98446.69;;;22.41;40.12
75208;BME280;63795;55.684;37.864;2023-07-02T18:07:23;98459.28;;;22.38;40.44
75208;BME280;63795;55.684;37.864;2023-07-02T18:12:25;98465.03;;;22.33;40.72
75208;BME280;63795;55.684;37.864;2023-07-02T18:17:26;98474.47;;;22.28;40.79
75208;BME280;63795;55.684;37.864;2023-07-02T18:22:26;98466.31;;;22.21;40.86
75208;BME280;63795;55.684;37.864;2023-07-02T18:27:27;98466.56;;;22.17;41.14
75208;BME280;63795;55.684;37.864;2023-07-02T18:32:27;98462.88;;;22.11;41.34
75208;BME280;63795;55.684;37.864;2023-07-02T18:37:30;98458.91;;;22.03;41.78
75208;BME280;63795;55.684;37.864;2023-07-02T18:42:30;98459.91;;;21.94;41.65
75208;BME280;63795;55.684;37.864;2023-07-02T18:47:31;98472.50;;;21.91;41.77
75208;BME280;63795;55.684;37.864;2023-07-02T18:52:31;98469.59;;;21.86;41.73
75208;BME280;63795;55.684;37.864;2023-07-02T18:57:32;98474.03;;;21.81;42.60
75208;BME280;63795;55.684;37.864;2023-07-02T19:02:33;98470.81;;;21.74;42.46
75208;BME280;63795;55.684;37.864;2023-07-02T19:07:37;98472.88;;;21.68;42.84
75208;BME280;63795;55.684;37.864;2023-07-02T19:12:37;98466.53;;;21.58;43.47
75208;BME280;63795;55.684;37.864;2023-07-02T19:17:38;98456.25;;;21.52;43.39
75208;BME280;63795;55.684;37.864;2023-07-02T19:22:38;98454.13;;;21.47;43.27
75208;BME280;63795;55.684;37.864;2023-07-02T19:27:39;98464.09;;;21.46;43.45
75208;BME280;63795;55.684;37.864;2023-07-02T19:32:40;98464.84;;;21.41;43.42
75208;BME280;63795;55.684;37.864;2023-07-02T19:37:40;98461.66;;;21.39;43.32
75208;BME280;63795;55.684;37.864;2023-07-02T19:42:41;98459.03;;;21.35;43.29
75208;BME280;63795;55.684;37.864;2023-07-02T19:47:42;98469.28;;;21.36;43.64
75208;BME280;63795;55.684;37.864;2023-07-02T19:52:43;98468.22;;;21.34;43.68
75208;BME280;63795;55.684;37.864;2023-07-02T19:57:43;98472.66;;;21.35;43.40
75208;BME280;63795;55.684;37.864;2023-07-02T20:02:44;98475.31;;;21.38;44.31
75208;BME280;63795;55.684;37.864;2023-07-02T20:07:44;98473.09;;;21.22;44.01
75208;BME280;63795;55.684;37.864;2023-07-02T20:12:45;98470.66;;;21.09;44.97
75208;BME280;63795;55.684;37.864;2023-07-02T20:17:45;98473.66;;;21.00;44.62
75208;BME280;63795;55.684;37.864;2023-07-02T20:22:46;98473.59;;;20.89;44.91
75208;BME280;63795;55.684;37.864;2023-07-02T20:27:47;98464.34;;;20.80;45.17
75208;BME280;63795;55.684;37.864;2023-07-02T20:32:47;98460.84;;;20.70;45.00
75208;BME280;63795;55.684;37.864;2023-07-02T20:37:50;98467.88;;;20.64;45.25
75208;BME280;63795;55.684;37.864;2023-07-02T20:42:51;98473.06;;;20.60;45.36
75208;BME280;63795;55.684;37.864;2023-07-02T20:47:52;98461.81;;;20.62;45.25
75208;BME280;63795;55.684;37.864;2023-07-02T20:52:53;98472.53;;;20.61;45.82
75208;BME280;63795;55.684;37.864;2023-07-02T20:57:54;98477.78;;;20.63;45.49
75208;BME280;63795;55.684;37.864;2023-07-02T21:02:54;98471.22;;;20.62;45.30
75208;BME280;63795;55.684;37.864;2023-07-02T21:07:55;98469.16;;;20.63;45.34
75208;BME280;63795;55.684;37.864;2023-07-02T21:12:55;98466.78;;;20.61;45.85
75208;BME280;63795;55.684;37.864;2023-07-02T21:17:56;98468.81;;;20.55;45.56
75208;BME280;63795;55.684;37.864;2023-07-02T21:22:56;98464.53;;;20.45;45.52
75208;BME280;63795;55.684;37.864;2023-07-02T21:27:57;98466.28;;;20.37;46.21
75208;BME280;63795;55.684;37.864;2023-07-02T21:32:57;98457.31;;;20.29;45.96
75208;BME280;63795;55.684;37.864;2023-07-02T21:38:01;98451.38;;;20.18;46.56
75208;BME280;63795;55.684;37.864;2023-07-02T21:43:01;98449.94;;;20.08;47.22
75208;BME280;63795;55.684;37.864;2023-07-02T21:48:02;98451.78;;;20.06;46.81
75208;BME280;63795;55.684;37.864;2023-07-02T21:53:03;98446.91;;;19.92;48.95
75208;BME280;63795;55.684;37.864;2023-07-02T21:58:03;98451.56;;;19.69;49.63
75208;BME280;63795;55.684;37.864;2023-07-02T22:03:04;98438.41;;;19.42;51.42
75208;BME280;63795;55.684;37.864;2023-07-02T22:08:04;98435.66;;;19.33;49.51
75208;BME280;63795;55.684;37.864;2023-07-02T22:13:05;98436.63;;;19.30;51.07
75208;BME280;63795;55.684;37.864;2023-07-02T22:18:06;98429.13;;;19.18;51.66
75208;BME280;63795;55.684;37.864;2023-07-02T22:23:07;98424.31;;;19.10;52.03
75208;BME280;63795;55.684;37.864;2023-07-02T22:28:08;98422.06;;;18.99;51.17
75208;BME280;63795;55.684;37.864;2023-07-02T22:33:09;98420.59;;;18.89;50.79
75208;BME280;63795;55.684;37.864;2023-07-02T22:38:09;98435.34;;;18.82;51.45
75208;BME280;63795;55.684;37.864;2023-07-02T22:43:11;98424.97;;;18.70;52.81
75208;BME280;63795;55.684;37.864;2023-07-02T22:48:11;98435.38;;;18.67;52.73
75208;BME280;63795;55.684;37.864;2023-07-02T22:53:12;98430.84;;;18.61;54.25
75208;BME280;63795;55.684;37.864;2023-07-02T22:58:12;98418.47;;;18.55;52.07
75208;BME280;63795;55.684;37.864;2023-07-02T23:03:13;98422.91;;;18.56;53.33
75208;BME280;63795;55.684;37.864;2023-07-02T23:08:13;98412.50;;;18.58;52.47
75208;BME280;63795;55.684;37.864;2023-07-02T23:13:14;98398.28;;;18.49;52.46
75208;BME280;63795;55.684;37.864;2023-07-02T23:18:14;98399.06;;;18.50;52.46
75208;BME280;63795;55.684;37.864;2023-07-02T23:23:15;98412.81;;;18.60;53.89
75208;BME280;63795;55.684;37.864;2023-07-02T23:28:16;98403.72;;;18.47;52.81
75208;BME280;63795;55.684;37.864;2023-07-02T23:33:16;98408.69;;;18.47;52.32
75208;BME280;63795;55.684;37.864;2023-07-02T23:38:17;98402.69;;;18.36;53.02
75208;BME280;63795;55.684;37.864;2023-07-02T23:43:18;98402.09;;;18.32;53.88
75208;BME280;63795;55.684;37.864;2023-07-02T23:48:19;98399.72;;;18.30;54.35
75208;BME280;63795;55.684;37.864;2023-07-02T23:53:19;98393.59;;;18.23;55.28
75208;BME280;63795;55.684;37.864;2023-07-02T23:58:20;98385.88;;;18.14;54.96
